sensor_id;sensor_type;location;lat;lon;timestamp;P1;durP1;ratioP1;P2;durP2;ratioP2
13102;SDS011;52970;46.752;17.108;2023-03-13T00:00:27;10.13;;;7.87;;
13102;SDS011;52970;46.752;17.108;2023-03-13T00:02:53;10.70;;;7.93;;
13102;SDS011;52970;46.752;17.108;2023-03-13T00:05:18;7.97;;;6.90;;
13102;SDS011;52970;46.752;17.108;2023-03-13T00:07:43;9.83;;;7.70;;
13102;SDS011;52970;46.752;17.108;2023-03-13T00:10:08;8.57;;;7.37;;
13102;SDS011;52970;46.752;17.108;2023-03-13T00:12:34;11.63;;;7.97;;
13102;SDS011;52970;46.752;17.108;2023-03-13T00:14:59;10.17;;;7.53;;
13102;SDS011;52970;46.752;17.108;2023-03-13T00:17:24;8.97;;;7.70;;
13102;SDS011;52970;46.752;17.108;2023-03-13T00:19:50;8.43;;;7.43;;
13102;SDS011;52970;46.752;17.108;2023-03-13T00:22:15;10.13;;;7.70;;
13102;SDS011;52970;46.752;17.108;2023-03-13T00:24:40;10.93;;;7.40;;
13102;SDS011;52970;46.752;17.108;2023-03-13T00:27:06;10.57;;;7.43;;
13102;SDS011;52970;46.752;17.108;2023-03-13T00:29:32;10.57;;;7.10;;
13102;SDS011;52970;46.752;17.108;2023-03-13T00:31:57;11.30;;;7.30;;
13102;SDS011;52970;46.752;17.108;2023-03-13T00:34:22;9.87;;;7.83;;
13102;SDS011;52970;46.752;17.108;2023-03-13T00:36:50;8.30;;;7.07;;
13102;SDS011;52970;46.752;17.108;2023-03-13T00:39:16;10.37;;;8.10;;
13102;SDS011;52970;46.752;17.108;2023-03-13T00:41:41;8.70;;;7.80;;
13102;SDS011;52970;46.752;17.108;2023-03-13T00:44:07;9.40;;;7.13;;
13102;SDS011;52970;46.752;17.108;2023-03-13T00:46:33;8.83;;;7.20;;
13102;SDS011;52970;46.752;17.108;2023-03-13T00:48:58;9.53;;;8.10;;
13102;SDS011;52970;46.752;17.108;2023-03-13T00:51:23;9.10;;;8.17;;
13102;SDS011;52970;46.752;17.108;2023-03-13T00:53:50;10.87;;;8.60;;
13102;SDS011;52970;46.752;17.108;2023-03-13T00:56:16;11.60;;;7.80;;
13102;SDS011;52970;46.752;17.108;2023-03-13T00:58:42;10.80;;;9.13;;
13102;SDS011;52970;46.752;17.108;2023-03-13T01:03:36;10.23;;;8.07;;
13102;SDS011;52970;46.752;17.108;2023-03-13T01:06:03;9.00;;;8.10;;
13102;SDS011;52970;46.752;17.108;2023-03-13T01:08:28;10.50;;;8.10;;
13102;SDS011;52970;46.752;17.108;2023-03-13T01:10:57;10.43;;;8.50;;
13102;SDS011;52970;46.752;17.108;2023-03-13T01:13:23;11.50;;;8.27;;
13102;SDS011;52970;46.752;17.108;2023-03-13T01:15:48;8.93;;;7.83;;
13102;SDS011;52970;46.752;17.108;2023-03-13T01:18:13;9.63;;;7.77;;
13102;SDS011;52970;46.752;17.108;2023-03-13T01:20:39;9.10;;;7.93;;
13102;SDS011;52970;46.752;17.108;2023-03-13T01:23:05;8.53;;;7.60;;
13102;SDS011;52970;46.752;17.108;2023-03-13T01:25:30;10.27;;;8.03;;
13102;SDS011;52970;46.752;17.108;2023-03-13T01:27:55;11.50;;;7.87;;
13102;SDS011;52970;46.752;17.108;2023-03-13T01:30:20;8.60;;;7.67;;
13102;SDS011;52970;46.752;17.108;2023-03-13T01:32:46;10.20;;;7.03;;
13102;SDS011;52970;46.752;17.108;2023-03-13T01:35:11;10.40;;;7.43;;
13102;SDS011;52970;46.752;17.108;2023-03-13T01:37:36;9.50;;;7.67;;
13102;SDS011;52970;46.752;17.108;2023-03-13T01:40:02;9.27;;;7.73;;
13102;SDS011;52970;46.752;17.108;2023-03-13T01:42:27;11.03;;;8.17;;
13102;SDS011;52970;46.752;17.108;2023-03-13T01:44:54;10.00;;;7.37;;
13102;SDS011;52970;46.752;17.108;2023-03-13T01:47:19;10.33;;;7.60;;
13102;SDS011;52970;46.752;17.108;2023-03-13T01:49:45;9.93;;;8.07;;
13102;SDS011;52970;46.752;17.108;2023-03-13T01:52:16;11.70;;;8.00;;
13102;SDS011;52970;46.752;17.108;2023-03-13T01:57:09;13.20;;;8.57;;
13102;SDS011;52970;46.752;17.108;2023-03-13T01:59:48;8.37;;;7.47;;
13102;SDS011;52970;46.752;17.108;2023-03-13T02:02:17;10.83;;;7.60;;
13102;SDS011;52970;46.752;17.108;2023-03-13T02:04:44;9.63;;;8.10;;
13102;SDS011;52970;46.752;17.108;2023-03-13T02:07:11;11.87;;;8.63;;
13102;SDS011;52970;46.752;17.108;2023-03-13T02:09:38;9.07;;;7.57;;
13102;SDS011;52970;46.752;17.108;2023-03-13T02:12:06;9.20;;;7.93;;
13102;SDS011;52970;46.752;17.108;2023-03-13T02:14:34;9.50;;;8.17;;
13102;SDS011;52970;46.752;17.108;2023-03-13T02:17:00;12.07;;;8.00;;
13102;SDS011;52970;46.752;17.108;2023-03-13T02:19:46;11.27;;;8.33;;
13102;SDS011;52970;46.752;17.108;2023-03-13T02:27:30;9.60;;;8.00;;
13102;SDS011;52970;46.752;17.108;2023-03-13T02:29:55;10.00;;;8.17;;
13102;SDS011;52970;46.752;17.108;2023-03-13T02:32:21;10.70;;;8.57;;
13102;SDS011;52970;46.752;17.108;2023-03-13T02:34:48;11.53;;;8.50;;
13102;SDS011;52970;46.752;17.108;2023-03-13T02:37:14;12.43;;;8.73;;
13102;SDS011;52970;46.752;17.108;2023-03-13T02:39:43;10.53;;;7.97;;
13102;SDS011;52970;46.752;17.108;2023-03-13T02:42:10;10.83;;;7.93;;
13102;SDS011;52970;46.752;17.108;2023-03-13T02:44:40;10.37;;;8.07;;
13102;SDS011;52970;46.752;17.108;2023-03-13T02:47:05;11.60;;;8.63;;
13102;SDS011;52970;46.752;17.108;2023-03-13T02:49:31;9.97;;;8.13;;
13102;SDS011;52970;46.752;17.108;2023-03-13T02:52:01;9.80;;;8.17;;
13102;SDS011;52970;46.752;17.108;2023-03-13T02:54:29;9.00;;;7.73;;
13102;SDS011;52970;46.752;17.108;2023-03-13T02:56:56;10.27;;;7.93;;
13102;SDS011;52970;46.752;17.108;2023-03-13T02:59:22;9.87;;;8.07;;
13102;SDS011;52970;46.752;17.108;2023-03-13T03:01:48;11.20;;;7.53;;
13102;SDS011;52970;46.752;17.108;2023-03-13T03:04:16;9.80;;;7.80;;
13102;SDS011;52970;46.752;17.108;2023-03-13T03:06:42;11.23;;;7.83;;
13102;SDS011;52970;46.752;17.108;2023-03-13T03:09:07;11.87;;;8.03;;
13102;SDS011;52970;46.752;17.108;2023-03-13T03:11:32;12.70;;;8.57;;
13102;SDS011;52970;46.752;17.108;2023-03-13T03:13:58;9.60;;;7.67;;
13102;SDS011;52970;46.752;17.108;2023-03-13T03:16:23;10.33;;;7.90;;
13102;SDS011;52970;46.752;17.108;2023-03-13T03:18:48;10.93;;;8.00;;
13102;SDS011;52970;46.752;17.108;2023-03-13T03:21:13;9.13;;;8.00;;
13102;SDS011;52970;46.752;17.108;2023-03-13T03:23:39;12.83;;;8.40;;
13102;SDS011;52970;46.752;17.108;2023-03-13T03:26:04;9.97;;;7.90;;
13102;SDS011;52970;46.752;17.108;2023-03-13T03:28:30;9.10;;;7.50;;
13102;SDS011;52970;46.752;17.108;2023-03-13T03:30:55;11.87;;;8.70;;
13102;SDS011;52970;46.752;17.108;2023-03-13T03:33:21;10.43;;;7.70;;
13102;SDS011;52970;46.752;17.108;2023-03-13T03:35:47;9.23;;;8.17;;
13102;SDS011;52970;46.752;17.108;2023-03-13T03:38:12;10.83;;;7.93;;
13102;SDS011;52970;46.752;17.108;2023-03-13T03:40:37;9.00;;;7.50;;
13102;SDS011;52970;46.752;17.108;2023-03-13T03:43:02;9.50;;;7.33;;
13102;SDS011;52970;46.752;17.108;2023-03-13T03:45:28;9.70;;;8.17;;
13102;SDS011;52970;46.752;17.108;2023-03-13T03:47:53;9.63;;;7.53;;
13102;SDS011;52970;46.752;17.108;2023-03-13T03:50:18;11.97;;;8.37;;
13102;SDS011;52970;46.752;17.108;2023-03-13T03:52:44;11.03;;;7.97;;
13102;SDS011;52970;46.752;17.108;2023-03-13T03:55:09;12.50;;;7.90;;
13102;SDS011;52970;46.752;17.108;2023-03-13T03:57:34;13.27;;;8.27;;
13102;SDS011;52970;46.752;17.108;2023-03-13T03:59:59;9.53;;;8.17;;
13102;SDS011;52970;46.752;17.108;2023-03-13T04:02:25;9.37;;;7.43;;
13102;SDS011;52970;46.752;17.108;2023-03-13T04:04:50;11.43;;;7.90;;
13102;SDS011;52970;46.752;17.108;2023-03-13T04:07:15;9.27;;;7.43;;
13102;SDS011;52970;46.752;17.108;2023-03-13T04:09:40;10.73;;;8.17;;
13102;SDS011;52970;46.752;17.108;2023-03-13T04:12:06;10.50;;;7.97;;
13102;SDS011;52970;46.752;17.108;2023-03-13T04:14:31;11.57;;;8.53;;
13102;SDS011;52970;46.752;17.108;2023-03-13T04:16:56;9.83;;;8.17;;
13102;SDS011;52970;46.752;17.108;2023-03-13T04:19:22;10.17;;;7.73;;
13102;SDS011;52970;46.752;17.108;2023-03-13T04:21:47;10.07;;;8.50;;
13102;SDS011;52970;46.752;17.108;2023-03-13T04:24:12;9.70;;;7.50;;
13102;SDS011;52970;46.752;17.108;2023-03-13T04:26:37;13.53;;;8.60;;
13102;SDS011;52970;46.752;17.108;2023-03-13T04:29:03;11.27;;;7.57;;
13102;SDS011;52970;46.752;17.108;2023-03-13T04:31:30;8.27;;;7.37;;
13102;SDS011;52970;46.752;17.108;2023-03-13T04:33:55;8.33;;;7.03;;
13102;SDS011;52970;46.752;17.108;2023-03-13T04:36:20;10.77;;;7.20;;
13102;SDS011;52970;46.752;17.108;2023-03-13T04:38:46;11.40;;;7.73;;
13102;SDS011;52970;46.752;17.108;2023-03-13T04:41:11;8.00;;;7.17;;
13102;SDS011;52970;46.752;17.108;2023-03-13T04:43:36;9.33;;;7.40;;
13102;SDS011;52970;46.752;17.108;2023-03-13T04:46:01;8.57;;;7.00;;
13102;SDS011;52970;46.752;17.108;2023-03-13T04:48:27;11.33;;;7.50;;
13102;SDS011;52970;46.752;17.108;2023-03-13T04:50:52;12.17;;;7.03;;
13102;SDS011;52970;46.752;17.108;2023-03-13T04:53:17;13.63;;;8.00;;
13102;SDS011;52970;46.752;17.108;2023-03-13T04:55:43;10.00;;;7.53;;
13102;SDS011;52970;46.752;17.108;2023-03-13T04:58:08;9.60;;;7.53;;
13102;SDS011;52970;46.752;17.108;2023-03-13T05:00:34;8.33;;;6.73;;
13102;SDS011;52970;46.752;17.108;2023-03-13T05:02:59;11.00;;;7.00;;
13102;SDS011;52970;46.752;17.108;2023-03-13T05:05:24;8.13;;;6.67;;
13102;SDS011;52970;46.752;17.108;2023-03-13T05:07:49;16.67;;;10.20;;
13102;SDS011;52970;46.752;17.108;2023-03-13T05:10:15;14.77;;;8.87;;
13102;SDS011;52970;46.752;17.108;2023-03-13T05:12:40;14.50;;;8.90;;
13102;SDS011;52970;46.752;17.108;2023-03-13T05:15:06;12.87;;;8.30;;
13102;SDS011;52970;46.752;17.108;2023-03-13T05:17:32;12.43;;;8.03;;
13102;SDS011;52970;46.752;17.108;2023-03-13T05:19:57;18.53;;;7.90;;
13102;SDS011;52970;46.752;17.108;2023-03-13T05:22:22;12.97;;;7.57;;
13102;SDS011;52970;46.752;17.108;2023-03-13T05:24:48;12.80;;;7.07;;
13102;SDS011;52970;46.752;17.108;2023-03-13T05:27:13;10.10;;;7.10;;
13102;SDS011;52970;46.752;17.108;2023-03-13T05:29:38;11.23;;;6.57;;
13102;SDS011;52970;46.752;17.108;2023-03-13T05:32:04;8.53;;;6.97;;
13102;SDS011;52970;46.752;17.108;2023-03-13T05:34:29;7.60;;;6.47;;
13102;SDS011;52970;46.752;17.108;2023-03-13T05:36:54;7.07;;;6.37;;
13102;SDS011;52970;46.752;17.108;2023-03-13T05:39:20;12.53;;;7.17;;
13102;SDS011;52970;46.752;17.108;2023-03-13T05:41:45;15.80;;;7.97;;
13102;SDS011;52970;46.752;17.108;2023-03-13T05:44:10;9.80;;;7.77;;
13102;SDS011;52970;46.752;17.108;2023-03-13T05:46:35;11.67;;;7.93;;
13102;SDS011;52970;46.752;17.108;2023-03-13T05:49:01;8.77;;;7.00;;
13102;SDS011;52970;46.752;17.108;2023-03-13T05:51:26;11.80;;;6.63;;
13102;SDS011;52970;46.752;17.108;2023-03-13T05:53:51;9.60;;;7.30;;
13102;SDS011;52970;46.752;17.108;2023-03-13T05:56:16;10.10;;;7.50;;
13102;SDS011;52970;46.752;17.108;2023-03-13T05:58:42;8.30;;;6.30;;
13102;SDS011;52970;46.752;17.108;2023-03-13T06:01:07;11.17;;;7.17;;
13102;SDS011;52970;46.752;17.108;2023-03-13T06:03:33;9.47;;;6.63;;
13102;SDS011;52970;46.752;17.108;2023-03-13T06:05:58;8.23;;;6.53;;
13102;SDS011;52970;46.752;17.108;2023-03-13T06:08:24;8.77;;;7.13;;
13102;SDS011;52970;46.752;17.108;2023-03-13T06:10:49;9.37;;;7.20;;
13102;SDS011;52970;46.752;17.108;2023-03-13T06:13:14;9.53;;;7.57;;
13102;SDS011;52970;46.752;17.108;2023-03-13T06:15:39;8.20;;;7.20;;
13102;SDS011;52970;46.752;17.108;2023-03-13T06:18:05;10.80;;;7.13;;
13102;SDS011;52970;46.752;17.108;2023-03-13T06:20:30;11.00;;;8.67;;
13102;SDS011;52970;46.752;17.108;2023-03-13T06:22:55;10.13;;;7.83;;
13102;SDS011;52970;46.752;17.108;2023-03-13T06:25:21;10.87;;;8.10;;
13102;SDS011;52970;46.752;17.108;2023-03-13T06:27:46;8.03;;;7.23;;
13102;SDS011;52970;46.752;17.108;2023-03-13T06:30:11;11.13;;;8.40;;
13102;SDS011;52970;46.752;17.108;2023-03-13T06:32:37;11.57;;;8.33;;
13102;SDS011;52970;46.752;17.108;2023-03-13T06:35:02;10.83;;;8.17;;
13102;SDS011;52970;46.752;17.108;2023-03-13T06:37:28;10.43;;;8.37;;
13102;SDS011;52970;46.752;17.108;2023-03-13T06:39:54;10.57;;;7.40;;
13102;SDS011;52970;46.752;17.108;2023-03-13T06:42:19;9.50;;;6.87;;
13102;SDS011;52970;46.752;17.108;2023-03-13T06:44:45;10.53;;;7.93;;
13102;SDS011;52970;46.752;17.108;2023-03-13T06:47:10;11.50;;;8.40;;
13102;SDS011;52970;46.752;17.108;2023-03-13T06:49:35;12.73;;;8.10;;
13102;SDS011;52970;46.752;17.108;2023-03-13T06:52:00;10.60;;;8.67;;
13102;SDS011;52970;46.752;17.108;2023-03-13T06:54:26;10.23;;;7.30;;
13102;SDS011;52970;46.752;17.108;2023-03-13T06:56:52;10.17;;;7.90;;
13102;SDS011;52970;46.752;17.108;2023-03-13T06:59:17;9.70;;;7.17;;
13102;SDS011;52970;46.752;17.108;2023-03-13T07:01:42;8.97;;;7.43;;
13102;SDS011;52970;46.752;17.108;2023-03-13T07:04:10;7.53;;;6.73;;
13102;SDS011;52970;46.752;17.108;2023-03-13T07:06:36;7.53;;;6.73;;
13102;SDS011;52970;46.752;17.108;2023-03-13T07:09:01;6.60;;;5.90;;
13102;SDS011;52970;46.752;17.108;2023-03-13T07:11:26;7.30;;;6.50;;
13102;SDS011;52970;46.752;17.108;2023-03-13T07:13:54;9.13;;;7.03;;
13102;SDS011;52970;46.752;17.108;2023-03-13T07:16:20;8.00;;;6.37;;
13102;SDS011;52970;46.752;17.108;2023-03-13T07:18:46;7.77;;;6.00;;
13102;SDS011;52970;46.752;17.108;2023-03-13T07:21:11;6.97;;;5.70;;
13102;SDS011;52970;46.752;17.108;2023-03-13T07:23:37;10.20;;;7.90;;
13102;SDS011;52970;46.752;17.108;2023-03-13T07:26:03;8.17;;;6.80;;
13102;SDS011;52970;46.752;17.108;2023-03-13T07:28:29;6.93;;;6.23;;
13102;SDS011;52970;46.752;17.108;2023-03-13T07:31:02;7.10;;;6.17;;
13102;SDS011;52970;46.752;17.108;2023-03-13T07:33:27;9.17;;;6.10;;
13102;SDS011;52970;46.752;17.108;2023-03-13T07:35:53;8.03;;;7.23;;
13102;SDS011;52970;46.752;17.108;2023-03-13T07:38:18;7.80;;;7.00;;
13102;SDS011;52970;46.752;17.108;2023-03-13T07:40:47;7.50;;;6.70;;
13102;SDS011;52970;46.752;17.108;2023-03-13T07:43:13;7.80;;;6.63;;
13102;SDS011;52970;46.752;17.108;2023-03-13T07:45:38;8.27;;;7.00;;
13102;SDS011;52970;46.752;17.108;2023-03-13T07:48:03;8.37;;;6.57;;
13102;SDS011;52970;46.752;17.108;2023-03-13T07:50:29;8.83;;;7.27;;
13102;SDS011;52970;46.752;17.108;2023-03-13T07:52:54;9.80;;;7.43;;
13102;SDS011;52970;46.752;17.108;2023-03-13T07:55:19;11.23;;;7.80;;
13102;SDS011;52970;46.752;17.108;2023-03-13T07:57:45;8.93;;;6.70;;
13102;SDS011;52970;46.752;17.108;2023-03-13T08:00:10;7.93;;;6.80;;
13102;SDS011;52970;46.752;17.108;2023-03-13T08:02:40;8.63;;;7.00;;
13102;SDS011;52970;46.752;17.108;2023-03-13T08:05:05;10.27;;;7.60;;
13102;SDS011;52970;46.752;17.108;2023-03-13T08:07:31;7.47;;;5.97;;
13102;SDS011;52970;46.752;17.108;2023-03-13T08:09:56;9.43;;;6.45;;
13102;SDS011;52970;46.752;17.108;2023-03-13T08:12:21;7.90;;;6.67;;
13102;SDS011;52970;46.752;17.108;2023-03-13T08:14:46;7.18;;;5.90;;
13102;SDS011;52970;46.752;17.108;2023-03-13T08:17:12;7.47;;;6.00;;
13102;SDS011;52970;46.752;17.108;2023-03-13T08:19:37;6.43;;;5.78;;
13102;SDS011;52970;46.752;17.108;2023-03-13T08:22:03;5.38;;;4.85;;
13102;SDS011;52970;46.752;17.108;2023-03-13T08:24:28;6.28;;;5.30;;
13102;SDS011;52970;46.752;17.108;2023-03-13T08:26:53;6.95;;;5.22;;
13102;SDS011;52970;46.752;17.108;2023-03-13T08:29:18;6.40;;;4.88;;
13102;SDS011;52970;46.752;17.108;2023-03-13T08:31:47;5.63;;;4.63;;
13102;SDS011;52970;46.752;17.108;2023-03-13T08:34:14;4.93;;;4.43;;
13102;SDS011;52970;46.752;17.108;2023-03-13T08:36:39;4.80;;;4.32;;
13102;SDS011;52970;46.752;17.108;2023-03-13T08:39:26;5.05;;;4.47;;
13102;SDS011;52970;46.752;17.108;2023-03-13T08:41:50;6.93;;;4.63;;
13102;SDS011;52970;46.752;17.108;2023-03-13T08:44:17;7.60;;;5.22;;
13102;SDS011;52970;46.752;17.108;2023-03-13T08:46:42;6.63;;;5.35;;
13102;SDS011;52970;46.752;17.108;2023-03-13T08:49:08;7.30;;;5.22;;
13102;SDS011;52970;46.752;17.108;2023-03-13T08:51:33;5.97;;;4.35;;
13102;SDS011;52970;46.752;17.108;2023-03-13T08:53:59;5.60;;;4.75;;
13102;SDS011;52970;46.752;17.108;2023-03-13T08:56:26;4.57;;;4.10;;
13102;SDS011;52970;46.752;17.108;2023-03-13T08:58:53;5.38;;;4.70;;
13102;SDS011;52970;46.752;17.108;2023-03-13T09:01:19;7.03;;;5.47;;
13102;SDS011;52970;46.752;17.108;2023-03-13T09:03:44;5.07;;;3.85;;
13102;SDS011;52970;46.752;17.108;2023-03-13T09:06:10;4.93;;;4.32;;
13102;SDS011;52970;46.752;17.108;2023-03-13T09:08:35;6.35;;;4.40;;
13102;SDS011;52970;46.752;17.108;2023-03-13T09:11:02;4.20;;;3.80;;
13102;SDS011;52970;46.752;17.108;2023-03-13T09:13:28;5.90;;;3.63;;
13102;SDS011;52970;46.752;17.108;2023-03-13T09:15:57;14.82;;;4.95;;
13102;SDS011;52970;46.752;17.108;2023-03-13T09:18:23;3.97;;;3.58;;
13102;SDS011;52970;46.752;17.108;2023-03-13T09:20:48;7.88;;;4.13;;
13102;SDS011;52970;46.752;17.108;2023-03-13T09:23:14;4.00;;;3.60;;
13102;SDS011;52970;46.752;17.108;2023-03-13T09:25:39;4.20;;;3.80;;
13102;SDS011;52970;46.752;17.108;2023-03-13T09:28:04;7.93;;;4.43;;
13102;SDS011;52970;46.752;17.108;2023-03-13T09:30:29;6.25;;;4.22;;
13102;SDS011;52970;46.752;17.108;2023-03-13T09:32:55;5.93;;;4.25;;
13102;SDS011;52970;46.752;17.108;2023-03-13T09:35:20;5.32;;;4.13;;
13102;SDS011;52970;46.752;17.108;2023-03-13T09:37:45;6.03;;;4.47;;
13102;SDS011;52970;46.752;17.108;2023-03-13T09:40:14;5.13;;;3.85;;
13102;SDS011;52970;46.752;17.108;2023-03-13T09:43:02;5.22;;;3.92;;
13102;SDS011;52970;46.752;17.108;2023-03-13T09:45:30;4.70;;;3.90;;
13102;SDS011;52970;46.752;17.108;2023-03-13T09:48:00;14.88;;;4.18;;
13102;SDS011;52970;46.752;17.108;2023-03-13T09:50:31;6.47;;;3.78;;
13102;SDS011;52970;46.752;17.108;2023-03-13T09:52:59;6.53;;;4.13;;
13102;SDS011;52970;46.752;17.108;2023-03-13T09:55:28;4.20;;;3.65;;
13102;SDS011;52970;46.752;17.108;2023-03-13T09:58:13;4.65;;;3.90;;
13102;SDS011;52970;46.752;17.108;2023-03-13T10:00:42;5.53;;;3.60;;
13102;SDS011;52970;46.752;17.108;2023-03-13T10:03:12;5.03;;;3.47;;
13102;SDS011;52970;46.752;17.108;2023-03-13T10:05:41;3.45;;;3.15;;
13102;SDS011;52970;46.752;17.108;2023-03-13T10:08:41;3.47;;;3.17;;
13102;SDS011;52970;46.752;17.108;2023-03-13T10:11:06;3.53;;;3.22;;
13102;SDS011;52970;46.752;17.108;2023-03-13T10:13:38;4.32;;;3.42;;
13102;SDS011;52970;46.752;17.108;2023-03-13T10:16:09;3.58;;;3.28;;
13102;SDS011;52970;46.752;17.108;2023-03-13T10:18:35;3.80;;;3.20;;
13102;SDS011;52970;46.752;17.108;2023-03-13T10:21:03;6.60;;;3.30;;
13102;SDS011;52970;46.752;17.108;2023-03-13T10:26:03;3.83;;;3.47;;
13102;SDS011;52970;46.752;17.108;2023-03-13T10:28:28;3.42;;;3.13;;
13102;SDS011;52970;46.752;17.108;2023-03-13T10:31:01;3.15;;;2.85;;
13102;SDS011;52970;46.752;17.108;2023-03-13T10:33:28;3.63;;;2.60;;
13102;SDS011;52970;46.752;17.108;2023-03-13T10:36:11;4.82;;;2.67;;
13102;SDS011;52970;46.752;17.108;2023-03-13T10:39:11;4.95;;;2.72;;
13102;SDS011;52970;46.752;17.108;2023-03-13T10:41:33;2.88;;;2.67;;
13102;SDS011;52970;46.752;17.108;2023-03-13T10:44:04;3.72;;;2.70;;
13102;SDS011;52970;46.752;17.108;2023-03-13T10:46:33;4.03;;;2.80;;
13102;SDS011;52970;46.752;17.108;2023-03-13T10:49:00;3.50;;;2.88;;
13102;SDS011;52970;46.752;17.108;2023-03-13T10:51:29;4.25;;;3.25;;
13102;SDS011;52970;46.752;17.108;2023-03-13T10:53:57;5.50;;;4.20;;
13102;SDS011;52970;46.752;17.108;2023-03-13T10:56:28;4.70;;;2.88;;
13102;SDS011;52970;46.752;17.108;2023-03-13T10:58:53;3.63;;;3.30;;
13102;SDS011;52970;46.752;17.108;2023-03-13T11:01:25;2.95;;;2.75;;
13102;SDS011;52970;46.752;17.108;2023-03-13T11:03:53;3.38;;;3.08;;
13102;SDS011;52970;46.752;17.108;2023-03-13T11:06:32;3.97;;;2.90;;
13102;SDS011;52970;46.752;17.108;2023-03-13T11:08:58;2.65;;;2.45;;
13102;SDS011;52970;46.752;17.108;2023-03-13T11:11:24;2.72;;;2.53;;
13102;SDS011;52970;46.752;17.108;2023-03-13T11:13:54;2.60;;;2.40;;
13102;SDS011;52970;46.752;17.108;2023-03-13T11:16:21;2.60;;;2.40;;
13102;SDS011;52970;46.752;17.108;2023-03-13T11:24:02;3.17;;;2.88;;
13102;SDS011;52970;46.752;17.108;2023-03-13T11:26:32;4.25;;;2.80;;
13102;SDS011;52970;46.752;17.108;2023-03-13T11:29:08;2.75;;;2.55;;
13102;SDS011;52970;46.752;17.108;2023-03-13T11:31:40;3.53;;;2.78;;
13102;SDS011;52970;46.752;17.108;2023-03-13T11:36:38;3.28;;;2.40;;
13102;SDS011;52970;46.752;17.108;2023-03-13T11:39:13;2.92;;;2.60;;
13102;SDS011;52970;46.752;17.108;2023-03-13T11:41:56;2.75;;;2.55;;
13102;SDS011;52970;46.752;17.108;2023-03-13T11:47:07;3.40;;;2.60;;
13102;SDS011;52970;46.752;17.108;2023-03-13T11:54:40;3.33;;;2.55;;
13102;SDS011;52970;46.752;17.108;2023-03-13T11:57:26;3.60;;;2.60;;
13102;SDS011;52970;46.752;17.108;2023-03-13T12:00:13;3.92;;;2.97;;
13102;SDS011;52970;46.752;17.108;2023-03-13T12:03:25;2.70;;;2.50;;
13102;SDS011;52970;46.752;17.108;2023-03-13T12:05:33;4.45;;;2.50;;
13102;SDS011;52970;46.752;17.108;2023-03-13T12:08:03;2.97;;;2.60;;
13102;SDS011;52970;46.752;17.108;2023-03-13T12:10:39;4.40;;;2.90;;
13102;SDS011;52970;46.752;17.108;2023-03-13T12:13:15;2.30;;;2.08;;
13102;SDS011;52970;46.752;17.108;2023-03-13T12:15:45;2.70;;;2.50;;
13102;SDS011;52970;46.752;17.108;2023-03-13T12:18:17;3.05;;;2.85;;
13102;SDS011;52970;46.752;17.108;2023-03-13T12:25:38;2.45;;;2.25;;
13102;SDS011;52970;46.752;17.108;2023-03-13T12:28:14;3.83;;;2.20;;
13102;SDS011;52970;46.752;17.108;2023-03-13T12:30:42;3.45;;;2.65;;
13102;SDS011;52970;46.752;17.108;2023-03-13T12:33:17;3.05;;;2.70;;
13102;SDS011;52970;46.752;17.108;2023-03-13T12:35:44;3.00;;;2.70;;
13102;SDS011;52970;46.752;17.108;2023-03-13T12:40:50;3.65;;;2.15;;
13102;SDS011;52970;46.752;17.108;2023-03-13T12:43:18;5.97;;;2.40;;
13102;SDS011;52970;46.752;17.108;2023-03-13T12:53:36;5.63;;;2.60;;
13102;SDS011;52970;46.752;17.108;2023-03-13T13:06:11;6.78;;;2.80;;
13102;SDS011;52970;46.752;17.108;2023-03-13T13:08:41;5.45;;;2.90;;
13102;SDS011;52970;46.752;17.108;2023-03-13T13:13:51;4.40;;;2.83;;
13102;SDS011;52970;46.752;17.108;2023-03-13T13:16:17;6.63;;;3.22;;
13102;SDS011;52970;46.752;17.108;2023-03-13T13:18:44;3.20;;;2.78;;
13102;SDS011;52970;46.752;17.108;2023-03-13T13:23:45;9.15;;;3.60;;
13102;SDS011;52970;46.752;17.108;2023-03-13T13:28:58;3.03;;;2.70;;
13102;SDS011;52970;46.752;17.108;2023-03-13T13:34:07;4.57;;;3.30;;
13102;SDS011;52970;46.752;17.108;2023-03-13T13:36:54;4.47;;;2.72;;
13102;SDS011;52970;46.752;17.108;2023-03-13T13:41:54;3.67;;;2.90;;
13102;SDS011;52970;46.752;17.108;2023-03-13T13:44:21;5.55;;;3.30;;
13102;SDS011;52970;46.752;17.108;2023-03-13T13:46:47;4.20;;;3.22;;
13102;SDS011;52970;46.752;17.108;2023-03-13T13:49:19;4.90;;;3.50;;
13102;SDS011;52970;46.752;17.108;2023-03-13T13:52:31;4.22;;;3.45;;
13102;SDS011;52970;46.752;17.108;2023-03-13T13:57:08;5.68;;;3.50;;
13102;SDS011;52970;46.752;17.108;2023-03-13T13:59:42;7.40;;;3.45;;
13102;SDS011;52970;46.752;17.108;2023-03-13T14:09:51;6.78;;;3.83;;
13102;SDS011;52970;46.752;17.108;2023-03-13T14:12:25;5.45;;;3.28;;
13102;SDS011;52970;46.752;17.108;2023-03-13T14:17:38;7.35;;;3.60;;
13102;SDS011;52970;46.752;17.108;2023-03-13T14:20:04;8.32;;;5.60;;
13102;SDS011;52970;46.752;17.108;2023-03-13T14:22:46;6.28;;;4.95;;
13102;SDS011;52970;46.752;17.108;2023-03-13T14:25:11;5.07;;;4.00;;
13102;SDS011;52970;46.752;17.108;2023-03-13T14:27:41;4.25;;;3.85;;
13102;SDS011;52970;46.752;17.108;2023-03-13T14:30:07;6.15;;;4.10;;
13102;SDS011;52970;46.752;17.108;2023-03-13T14:32:35;4.70;;;3.55;;
13102;SDS011;52970;46.752;17.108;2023-03-13T14:35:02;6.15;;;3.67;;
13102;SDS011;52970;46.752;17.108;2023-03-13T14:40:04;5.22;;;3.80;;
13102;SDS011;52970;46.752;17.108;2023-03-13T14:42:36;4.10;;;3.50;;
13102;SDS011;52970;46.752;17.108;2023-03-13T14:45:10;6.30;;;3.90;;
13102;SDS011;52970;46.752;17.108;2023-03-13T14:47:36;4.78;;;3.78;;
13102;SDS011;52970;46.752;17.108;2023-03-13T14:50:08;9.13;;;3.45;;
13102;SDS011;52970;46.752;17.108;2023-03-13T14:52:34;6.28;;;3.70;;
13102;SDS011;52970;46.752;17.108;2023-03-13T14:55:42;5.82;;;3.97;;
13102;SDS011;52970;46.752;17.108;2023-03-13T14:57:55;10.95;;;3.90;;
13102;SDS011;52970;46.752;17.108;2023-03-13T15:00:32;6.55;;;4.07;;
13102;SDS011;52970;46.752;17.108;2023-03-13T15:03:18;6.43;;;4.22;;
13102;SDS011;52970;46.752;17.108;2023-03-13T15:05:47;6.00;;;4.07;;
13102;SDS011;52970;46.752;17.108;2023-03-13T15:08:14;7.93;;;4.05;;
13102;SDS011;52970;46.752;17.108;2023-03-13T15:10:39;5.10;;;4.50;;
13102;SDS011;52970;46.752;17.108;2023-03-13T15:15:49;6.20;;;4.78;;
13102;SDS011;52970;46.752;17.108;2023-03-13T15:18:20;7.65;;;5.32;;
13102;SDS011;52970;46.752;17.108;2023-03-13T15:20:53;10.57;;;6.97;;
13102;SDS011;52970;46.752;17.108;2023-03-13T15:23:19;9.88;;;5.90;;
13102;SDS011;52970;46.752;17.108;2023-03-13T15:25:45;7.43;;;5.90;;
13102;SDS011;52970;46.752;17.108;2023-03-13T15:28:15;9.82;;;6.50;;
13102;SDS011;52970;46.752;17.108;2023-03-13T15:30:40;9.80;;;7.43;;
13102;SDS011;52970;46.752;17.108;2023-03-13T15:33:08;10.75;;;7.82;;
13102;SDS011;52970;46.752;17.108;2023-03-13T15:35:34;10.95;;;7.55;;
13102;SDS011;52970;46.752;17.108;2023-03-13T15:38:00;12.07;;;8.00;;
13102;SDS011;52970;46.752;17.108;2023-03-13T15:40:26;9.30;;;7.00;;
13102;SDS011;52970;46.752;17.108;2023-03-13T15:42:52;12.95;;;8.50;;
13102;SDS011;52970;46.752;17.108;2023-03-13T15:45:17;8.70;;;6.00;;
13102;SDS011;52970;46.752;17.108;2023-03-13T15:47:43;8.40;;;5.38;;
13102;SDS011;52970;46.752;17.108;2023-03-13T15:50:12;9.85;;;6.53;;
13102;SDS011;52970;46.752;17.108;2023-03-13T15:52:37;17.95;;;11.18;;
13102;SDS011;52970;46.752;17.108;2023-03-13T15:55:02;14.38;;;8.82;;
13102;SDS011;52970;46.752;17.108;2023-03-13T15:57:28;8.88;;;7.13;;